createdAt,value
2023-04-28T00:02:08.049Z,3.28
2023-04-28T00:05:08.163Z,3.14
2023-04-28T00:08:17.346Z,3.11
2023-04-28T00:11:05.526Z,3.24
2023-04-28T00:14:11.997Z,3.26
2023-04-28T00:17:08.962Z,3.25
2023-04-28T00:19:56.004Z,3.02
2023-04-28T00:22:42.882Z,2.97
2023-04-28T00:25:30.944Z,2.50
2023-04-28T00:28:30.509Z,3.02
2023-04-28T00:31:20.613Z,3.00
2023-04-28T00:34:07.366Z,2.88
2023-04-28T00:36:54.245Z,2.86
2023-04-28T00:39:47.146Z,2.77
2023-04-28T00:42:35.298Z,2.73
2023-04-28T00:45:35.290Z,2.82
2023-04-28T00:48:22.656Z,2.68
2023-04-28T00:51:13.229Z,2.90
2023-04-28T00:54:01.936Z,2.84
2023-04-28T00:56:49.055Z,2.59
2023-04-28T00:59:37.789Z,2.62
2023-04-28T01:02:25.091Z,2.51
2023-04-28T01:05:13.434Z,2.50
2023-04-28T01:07:59.993Z,2.48
2023-04-28T01:10:46.637Z,2.68
2023-04-28T01:13:48.194Z,2.55
2023-04-28T01:16:38.455Z,2.60
2023-04-28T01:19:26.179Z,2.49
2023-04-28T01:22:15.397Z,2.40
2023-04-28T01:25:05.551Z,2.46
2023-04-28T01:27:53.414Z,2.48
2023-04-28T01:30:39.823Z,2.46
2023-04-28T01:33:27.006Z,2.45
2023-04-28T01:36:13.872Z,2.44
2023-04-28T01:39:00.859Z,2.43
2023-04-28T01:41:48.753Z,2.45
2023-04-28T01:44:35.546Z,2.38
2023-04-28T01:47:22.266Z,2.41
2023-04-28T01:50:09.423Z,2.23
2023-04-28T01:52:56.193Z,2.17
2023-04-28T01:55:42.879Z,2.20
2023-04-28T01:58:31.027Z,2.30
2023-04-28T02:01:17.883Z,2.25
2023-04-28T02:04:04.716Z,2.25
2023-04-28T02:06:58.813Z,2.14
2023-04-28T02:09:47.085Z,2.15
2023-04-28T02:12:33.553Z,2.33
2023-04-28T02:15:21.902Z,2.49
2023-04-28T02:18:08.609Z,2.41
2023-04-28T02:20:59.411Z,2.38
2023-04-28T02:23:47.748Z,2.42
2023-04-28T02:26:44.619Z,2.24
2023-04-28T02:29:36.015Z,2.25
2023-04-28T02:32:27.178Z,2.43
2023-04-28T02:35:14.359Z,2.20
2023-04-28T02:38:01.202Z,2.35
2023-04-28T02:40:47.940Z,2.34
2023-04-28T02:43:35.271Z,2.28
2023-04-28T02:46:26.186Z,2.43
2023-04-28T02:49:15.609Z,2.31
2023-04-28T02:52:03.341Z,2.29
2023-04-28T02:54:55.438Z,2.30
2023-04-28T02:57:43.052Z,2.28
2023-04-28T03:00:31.477Z,2.37
2023-04-28T03:03:18.576Z,2.22
2023-04-28T03:06:07.560Z,2.34
2023-04-28T03:08:55.622Z,2.35
2023-04-28T03:11:42.820Z,2.22
2023-04-28T03:14:29.605Z,2.34
2023-04-28T03:17:16.581Z,2.38
2023-04-28T03:20:05.084Z,2.49
2023-04-28T03:22:53.421Z,2.43
2023-04-28T03:25:40.035Z,2.49
2023-04-28T03:28:27.000Z,2.61
2023-04-28T03:31:13.746Z,2.96
2023-04-28T03:34:00.691Z,2.81
2023-04-28T03:36:47.560Z,2.79
2023-04-28T03:39:44.461Z,2.83
2023-04-28T03:42:31.266Z,2.88
2023-04-28T03:45:27.877Z,2.86
2023-04-28T03:48:14.702Z,2.88
2023-04-28T03:51:01.393Z,2.89
2023-04-28T03:53:48.207Z,3.00
2023-04-28T03:56:48.131Z,2.93
2023-04-28T03:59:35.823Z,2.92
2023-04-28T04:02:22.927Z,2.96
2023-04-28T04:05:09.963Z,3.25
2023-04-28T04:07:57.035Z,3.21
2023-04-28T04:10:43.887Z,3.03
2023-04-28T04:13:32.270Z,3.22
2023-04-28T04:16:19.384Z,3.12
2023-04-28T04:19:06.599Z,3.12
2023-04-28T04:22:04.577Z,3.16
2023-04-28T04:24:51.291Z,3.28
2023-04-28T04:27:38.203Z,3.35
2023-04-28T04:30:26.475Z,3.56
2023-04-28T04:33:13.247Z,3.88
2023-04-28T04:36:00.171Z,4.50
2023-04-28T04:38:47.697Z,4.74
2023-04-28T04:41:38.528Z,4.87
2023-04-28T04:44:46.949Z,4.70
2023-04-28T04:47:49.485Z,4.85
2023-04-28T04:50:38.521Z,4.73
2023-04-28T04:53:27.282Z,4.70
2023-04-28T04:56:15.955Z,4.53
2023-04-28T04:59:05.468Z,4.40
2023-04-28T05:02:04.325Z,4.92
2023-04-28T05:05:01.754Z,6.09
2023-04-28T05:07:56.736Z,7.44
2023-04-28T05:10:43.442Z,9.29
2023-04-28T05:13:31.787Z,10.97
2023-04-28T05:16:23.624Z,12.43
2023-04-28T05:19:31.593Z,14.07
2023-04-28T05:22:20.044Z,14.15
2023-04-28T05:25:09.257Z,14.91
2023-04-28T05:27:57.899Z,15.28
2023-04-28T05:30:45.810Z,16.07
2023-04-28T05:33:33.286Z,16.19
2023-04-28T05:36:20.161Z,17.18
2023-04-28T05:39:08.353Z,17.39
2023-04-28T05:41:54.918Z,17.48
2023-04-28T05:44:43.081Z,16.76
2023-04-28T05:47:31.335Z,15.46
2023-04-28T05:50:18.149Z,14.66
2023-04-28T05:53:05.651Z,13.88
2023-04-28T05:55:53.548Z,13.44
2023-04-28T05:58:41.665Z,13.19
2023-04-28T06:01:28.747Z,12.48
2023-04-28T06:04:15.979Z,11.54
2023-04-28T06:07:06.316Z,11.16
2023-04-28T06:09:53.716Z,10.88
2023-04-28T06:12:41.843Z,11.28
2023-04-28T06:15:29.527Z,11.94
2023-04-28T06:18:16.935Z,12.98
2023-04-28T06:21:03.854Z,14.14
2023-04-28T06:23:50.498Z,15.15
2023-04-28T06:26:37.279Z,15.41
2023-04-28T06:29:25.552Z,14.61
2023-04-28T06:32:12.458Z,14.35
2023-04-28T06:34:59.034Z,14.36
2023-04-28T06:37:46.481Z,14.39
2023-04-28T06:40:34.797Z,13.34
2023-04-28T06:43:22.486Z,13.33
2023-04-28T06:46:30.239Z,13.06
2023-04-28T06:49:17.335Z,12.98
2023-04-28T06:52:04.123Z,12.95
2023-04-28T06:54:51.406Z,12.79
2023-04-28T06:57:39.069Z,13.02
2023-04-28T07:00:26.074Z,13.10
2023-04-28T07:03:14.303Z,13.09
2023-04-28T07:06:01.207Z,13.25
2023-04-28T07:08:48.099Z,13.24
2023-04-28T07:11:34.858Z,13.32
2023-04-28T07:14:21.720Z,13.13
2023-04-28T07:17:09.007Z,13.23
2023-04-28T07:19:57.213Z,13.13
2023-04-28T07:22:43.674Z,13.16
2023-04-28T07:25:30.528Z,13.26
2023-04-28T07:28:17.388Z,13.34
2023-04-28T07:31:04.175Z,13.26
2023-04-28T07:33:50.988Z,13.31
2023-04-28T07:36:39.329Z,13.52
2023-04-28T07:39:25.886Z,13.33
2023-04-28T07:42:12.951Z,13.57
2023-04-28T07:44:59.581Z,13.86
2023-04-28T07:47:46.372Z,13.98
2023-04-28T07:50:33.070Z,13.90
2023-04-28T07:53:21.340Z,14.10
2023-04-28T07:56:08.126Z,14.21
2023-04-28T07:58:54.560Z,14.24
2023-04-28T08:01:41.463Z,14.42
2023-04-28T08:04:28.571Z,14.27
2023-04-28T08:07:15.718Z,14.36
2023-04-28T08:10:03.637Z,14.39
2023-04-28T08:12:50.266Z,14.12
2023-04-28T08:15:37.149Z,14.36
2023-04-28T08:18:24.011Z,14.73
2023-04-28T08:21:11.266Z,14.61
2023-04-28T08:23:57.634Z,14.29
2023-04-28T08:26:46.282Z,14.62
2023-04-28T08:29:33.744Z,14.46
2023-04-28T08:32:20.405Z,14.57
2023-04-28T08:35:08.085Z,15.09
2023-04-28T08:37:54.804Z,15.14
2023-04-28T08:40:42.919Z,16.50
2023-04-28T08:43:31.206Z,17.00
2023-04-28T08:46:19.578Z,16.59
2023-04-28T08:49:08.971Z,16.50
2023-04-28T08:52:00.315Z,17.22
2023-04-28T08:54:50.358Z,17.09
2023-04-28T08:57:44.763Z,17.10
2023-04-28T09:00:32.802Z,16.67
2023-04-28T09:03:19.856Z,17.05
2023-04-28T09:06:06.492Z,17.92
2023-04-28T09:08:53.773Z,17.76
2023-04-28T09:11:52.197Z,17.72
2023-04-28T09:14:39.810Z,17.92
2023-04-28T09:17:27.951Z,18.35
2023-04-28T09:20:21.025Z,17.49
2023-04-28T09:23:16.060Z,17.26
2023-04-28T09:26:04.740Z,16.84
2023-04-28T09:28:51.997Z,16.58
2023-04-28T09:31:40.868Z,16.79
2023-04-28T09:34:45.442Z,17.14
2023-04-28T09:37:32.827Z,17.25
2023-04-28T09:40:20.710Z,17.09
2023-04-28T09:43:24.629Z,17.29
2023-04-28T09:46:11.246Z,16.68
2023-04-28T09:49:03.228Z,16.98
2023-04-28T09:51:51.341Z,17.50
2023-04-28T09:54:38.337Z,17.75
2023-04-28T09:57:25.396Z,17.48
2023-04-28T10:00:12.633Z,17.37
2023-04-28T10:03:00.244Z,18.01
2023-04-28T10:05:47.464Z,18.31
2023-04-28T10:08:36.101Z,18.38
2023-04-28T10:11:23.016Z,18.48
2023-04-28T10:14:10.029Z,18.34
2023-04-28T10:17:00.445Z,18.41
2023-04-28T10:19:48.204Z,18.77
2023-04-28T10:22:52.661Z,19.31
2023-04-28T10:25:43.684Z,19.46
2023-04-28T10:28:31.082Z,19.47
2023-04-28T10:31:20.868Z,19.23
2023-04-28T10:34:29.560Z,18.75
2023-04-28T10:37:19.061Z,18.34
2023-04-28T10:40:34.180Z,18.82
2023-04-28T10:43:40.288Z,18.29
2023-04-28T10:46:26.978Z,18.64
2023-04-28T10:49:13.716Z,18.38
2023-04-28T10:52:00.577Z,18.54
2023-04-28T10:55:33.712Z,18.59
2023-04-28T10:58:34.067Z,18.43
2023-04-28T11:01:30.889Z,18.50
2023-04-28T11:04:18.368Z,18.35
2023-04-28T11:07:13.910Z,18.28
2023-04-28T11:10:00.634Z,18.31
2023-04-28T11:13:20.620Z,18.39
2023-04-28T11:16:08.107Z,18.58
2023-04-28T11:19:00.198Z,18.13
2023-04-28T11:21:48.274Z,17.84
2023-04-28T11:24:35.033Z,18.51
2023-04-28T11:27:25.302Z,18.33
2023-04-28T11:30:22.341Z,18.09
2023-04-28T11:33:10.525Z,18.32
2023-04-28T11:35:59.156Z,18.45
2023-04-28T11:38:49.514Z,18.32
2023-04-28T11:41:37.350Z,18.38
2023-04-28T11:44:25.501Z,17.95
2023-04-28T11:47:11.974Z,18.05
2023-04-28T11:49:58.990Z,18.17
2023-04-28T11:52:53.804Z,18.42
2023-04-28T11:55:40.464Z,18.66
2023-04-28T11:58:27.973Z,18.67
2023-04-28T12:01:15.845Z,18.93
2023-04-28T12:04:03.477Z,18.52
2023-04-28T12:07:00.373Z,18.89
2023-04-28T12:09:49.554Z,18.91
2023-04-28T12:12:49.013Z,18.65
2023-04-28T12:15:42.186Z,18.79
2023-04-28T12:18:28.786Z,19.13
2023-04-28T12:21:22.752Z,18.64
2023-04-28T12:24:17.385Z,18.94
2023-04-28T12:27:21.884Z,18.79
2023-04-28T12:30:26.579Z,19.44
2023-04-28T12:33:25.016Z,19.44
2023-04-28T12:36:12.213Z,19.33
2023-04-28T12:38:59.282Z,19.23
2023-04-28T12:41:45.822Z,18.52
2023-04-28T12:44:38.271Z,18.57
2023-04-28T12:47:25.201Z,19.23
2023-04-28T12:50:12.118Z,19.28
2023-04-28T12:52:58.764Z,18.72
2023-04-28T12:55:45.380Z,18.46
2023-04-28T12:58:32.312Z,18.88
2023-04-28T13:01:20.509Z,18.66
2023-04-28T13:04:07.306Z,19.23
2023-04-28T13:06:54.500Z,19.35
2023-04-28T13:09:43.007Z,19.42
2023-04-28T13:12:30.118Z,19.57
2023-04-28T13:15:18.670Z,18.98
2023-04-28T13:18:08.175Z,19.43
2023-04-28T13:20:54.778Z,19.47
2023-04-28T13:23:42.833Z,19.42
2023-04-28T13:26:30.386Z,18.85
2023-04-28T13:29:18.030Z,19.26
2023-04-28T13:32:05.613Z,19.36
2023-04-28T13:34:54.132Z,19.43
2023-04-28T13:37:45.802Z,19.60
2023-04-28T13:40:33.761Z,19.44
2023-04-28T13:43:20.337Z,19.37
2023-04-28T13:46:08.658Z,19.54
2023-04-28T13:48:56.023Z,19.15
2023-04-28T13:51:45.715Z,19.24
2023-04-28T13:54:32.256Z,19.22
2023-04-28T13:57:19.184Z,19.33
2023-04-28T14:00:07.447Z,19.46
2023-04-28T14:02:54.399Z,19.54
2023-04-28T14:05:48.886Z,19.15
2023-04-28T14:08:37.702Z,19.22
2023-04-28T14:11:24.575Z,19.22
2023-04-28T14:14:11.224Z,18.88
2023-04-28T14:16:57.978Z,19.15
2023-04-28T14:19:45.574Z,19.40
2023-04-28T14:22:32.064Z,19.34
2023-04-28T14:25:20.326Z,19.10
2023-04-28T14:28:06.984Z,19.07
2023-04-28T14:30:54.769Z,19.25
2023-04-28T14:33:41.703Z,19.49
2023-04-28T14:36:28.734Z,19.42
2023-04-28T14:39:15.305Z,19.54
2023-04-28T14:42:04.001Z,19.33
2023-04-28T14:44:51.729Z,19.30
2023-04-28T14:47:40.461Z,19.25
2023-04-28T14:50:27.231Z,19.28
2023-04-28T14:53:13.920Z,19.31
2023-04-28T14:56:14.722Z,19.03
2023-04-28T14:59:06.120Z,18.91
2023-04-28T15:01:53.055Z,18.93
2023-04-28T15:04:40.061Z,18.83
2023-04-28T15:07:31.302Z,18.66
2023-04-28T15:10:18.519Z,18.46
2023-04-28T15:13:05.158Z,18.60
2023-04-28T15:15:53.249Z,18.50
2023-04-28T15:18:40.033Z,18.42
2023-04-28T15:21:28.641Z,18.39
2023-04-28T15:24:15.820Z,18.38
2023-04-28T15:27:04.131Z,18.29
2023-04-28T15:29:50.772Z,18.21
2023-04-28T15:32:38.897Z,18.22
2023-04-28T15:35:25.399Z,18.05
2023-04-28T15:38:12.225Z,17.97
2023-04-28T15:40:59.019Z,18.01
2023-04-28T15:43:46.249Z,17.96
2023-04-28T15:46:33.141Z,17.83
2023-04-28T15:49:21.637Z,17.68
2023-04-28T15:52:08.163Z,17.35
2023-04-28T15:54:55.773Z,17.23
2023-04-28T15:57:42.933Z,17.20
2023-04-28T16:00:29.385Z,17.24
2023-04-28T16:03:16.245Z,17.36
2023-04-28T16:06:04.652Z,17.51
2023-04-28T16:08:51.206Z,17.48
2023-04-28T16:11:38.673Z,17.37
2023-04-28T16:14:25.241Z,17.31
2023-04-28T16:17:12.028Z,17.30
2023-04-28T16:19:58.714Z,17.32
2023-04-28T16:22:47.374Z,17.29
2023-04-28T16:25:34.205Z,17.28
2023-04-28T16:28:21.085Z,17.21
2023-04-28T16:31:08.055Z,17.14
2023-04-28T16:33:55.355Z,17.17
2023-04-28T16:36:42.317Z,17.12
2023-04-28T16:39:30.323Z,16.90
2023-04-28T16:42:16.720Z,16.96
2023-04-28T16:45:03.721Z,16.86
2023-04-28T16:47:50.518Z,16.76
2023-04-28T16:50:39.106Z,16.76
2023-04-28T16:53:27.012Z,16.63
2023-04-28T16:56:15.246Z,16.70
2023-04-28T16:59:01.987Z,16.52
2023-04-28T17:01:49.074Z,16.33
2023-04-28T17:04:37.225Z,16.38
2023-04-28T17:07:25.610Z,16.19
2023-04-28T17:10:12.429Z,16.06
2023-04-28T17:13:00.663Z,15.69
2023-04-28T17:15:54.548Z,15.83
2023-04-28T17:18:41.459Z,15.96
2023-04-28T17:21:28.816Z,15.74
2023-04-28T17:24:15.096Z,15.77
2023-04-28T17:27:01.915Z,15.88
2023-04-28T17:29:51.971Z,15.84
2023-04-28T17:32:39.162Z,16.02
2023-04-28T17:35:25.890Z,16.00
2023-04-28T17:38:12.392Z,15.95
2023-04-28T17:40:59.219Z,15.79
2023-04-28T17:43:46.075Z,15.77
2023-04-28T17:46:34.354Z,15.49
2023-04-28T17:49:21.003Z,15.40
2023-04-28T17:52:07.748Z,15.33
2023-04-28T17:54:54.493Z,15.25
2023-04-28T17:57:41.302Z,15.27
2023-04-28T18:00:27.929Z,15.35
2023-04-28T18:03:16.354Z,15.65
2023-04-28T18:06:04.893Z,15.43
2023-04-28T18:08:51.501Z,15.46
2023-04-28T18:11:38.707Z,15.52
2023-04-28T18:14:25.893Z,15.41
2023-04-28T18:17:12.505Z,15.45
2023-04-28T18:20:00.705Z,15.31
2023-04-28T18:22:47.276Z,15.15
2023-04-28T18:25:34.014Z,15.02
2023-04-28T18:28:20.740Z,15.14
2023-04-28T18:31:07.771Z,15.00
2023-04-28T18:33:55.303Z,15.03
2023-04-28T18:36:43.175Z,15.17
2023-04-28T18:39:29.985Z,15.15
2023-04-28T18:42:16.908Z,15.00
2023-04-28T18:45:04.518Z,14.89
2023-04-28T18:47:51.259Z,14.87
2023-04-28T18:50:37.905Z,14.78
2023-04-28T18:53:26.083Z,14.93
2023-04-28T18:56:13.230Z,14.90
2023-04-28T18:58:59.807Z,14.87
2023-04-28T19:01:46.610Z,14.80
2023-04-28T19:04:33.514Z,14.77
2023-04-28T19:07:20.267Z,14.73
2023-04-28T19:10:09.613Z,14.68
2023-04-28T19:12:57.505Z,14.55
2023-04-28T19:15:44.296Z,14.61
2023-04-28T19:18:31.954Z,14.63
2023-04-28T19:21:18.872Z,14.58
2023-04-28T19:24:05.549Z,14.81
2023-04-28T19:26:54.765Z,14.57
2023-04-28T19:29:42.586Z,14.89
2023-04-28T19:32:29.980Z,14.80
2023-04-28T19:35:16.667Z,14.82
2023-04-28T19:38:03.456Z,14.77
2023-04-28T19:40:50.746Z,14.57
2023-04-28T19:43:38.835Z,14.70
2023-04-28T19:46:25.931Z,14.83
2023-04-28T19:49:12.822Z,14.88
2023-04-28T19:51:59.424Z,14.60
2023-04-28T19:54:46.219Z,14.48
2023-04-28T19:57:33.029Z,14.38
2023-04-28T20:00:21.793Z,14.42
2023-04-28T20:03:08.545Z,14.39
2023-04-28T20:05:54.966Z,14.43
2023-04-28T20:08:41.827Z,14.63
2023-04-28T20:11:28.732Z,14.61
2023-04-28T20:14:15.383Z,14.57
2023-04-28T20:17:05.228Z,14.43
2023-04-28T20:19:52.794Z,14.50
2023-04-28T20:22:40.825Z,14.51
2023-04-28T20:25:27.883Z,14.52
2023-04-28T20:28:14.531Z,14.54
2023-04-28T20:31:01.486Z,14.46
2023-04-28T20:33:49.278Z,14.58
2023-04-28T20:36:36.250Z,14.67
2023-04-28T20:39:22.791Z,14.67
2023-04-28T20:42:10.174Z,14.58
2023-04-28T20:44:56.889Z,14.54
2023-04-28T20:47:43.746Z,14.61
2023-04-28T20:50:33.429Z,14.54
2023-04-28T20:53:20.163Z,14.59
2023-04-28T20:56:07.358Z,14.63
2023-04-28T20:58:55.445Z,14.61
2023-04-28T21:01:42.255Z,14.63
2023-04-28T21:04:29.099Z,14.82
2023-04-28T21:07:17.672Z,14.71
2023-04-28T21:10:04.426Z,14.72
2023-04-28T21:12:51.021Z,14.69
2023-04-28T21:15:38.258Z,14.57
2023-04-28T21:18:24.962Z,14.72
2023-04-28T21:21:12.233Z,14.66
2023-04-28T21:24:00.433Z,14.75
2023-04-28T21:26:47.690Z,14.81
2023-04-28T21:29:35.030Z,14.82
2023-04-28T21:32:21.975Z,14.84
2023-04-28T21:35:09.572Z,14.84
2023-04-28T21:37:56.540Z,14.83
2023-04-28T21:40:49.657Z,14.77
2023-04-28T21:43:40.461Z,14.89
2023-04-28T21:46:27.824Z,14.79
2023-04-28T21:49:14.843Z,14.84
2023-04-28T21:52:01.716Z,14.80
2023-04-28T21:54:48.507Z,14.80
2023-04-28T21:57:37.056Z,14.70
2023-04-28T22:00:24.118Z,14.82
2023-04-28T22:03:11.714Z,14.82
2023-04-28T22:05:58.289Z,14.64
2023-04-28T22:08:45.019Z,14.83
2023-04-28T22:11:32.356Z,14.87
2023-04-28T22:14:38.796Z,14.79
2023-04-28T22:17:27.550Z,14.78
2023-04-28T22:20:15.090Z,14.70
2023-04-28T22:23:01.853Z,14.61
2023-04-28T22:25:48.506Z,14.62
2023-04-28T22:28:35.452Z,14.62
2023-04-28T22:31:23.473Z,14.58
2023-04-28T22:34:10.464Z,14.66
2023-04-28T22:36:57.326Z,14.62
2023-04-28T22:39:44.153Z,14.57
2023-04-28T22:42:30.830Z,14.53
2023-04-28T22:45:17.726Z,14.53
2023-04-28T22:48:06.463Z,14.60
2023-04-28T22:50:53.184Z,14.61
2023-04-28T22:53:39.902Z,14.60
2023-04-28T22:56:26.853Z,14.80
2023-04-28T22:59:13.650Z,14.68
2023-04-28T23:02:00.618Z,14.70
2023-04-28T23:04:48.443Z,14.72
2023-04-28T23:07:35.144Z,14.49
2023-04-28T23:10:21.770Z,14.71
2023-04-28T23:13:08.486Z,14.57
2023-04-28T23:15:59.102Z,14.56
2023-04-28T23:18:45.805Z,14.67
2023-04-28T23:21:33.868Z,14.72
2023-04-28T23:24:20.560Z,14.56
2023-04-28T23:27:07.488Z,14.49
2023-04-28T23:29:54.487Z,14.48
2023-04-28T23:32:42.468Z,14.51
2023-04-28T23:35:29.121Z,14.67
2023-04-28T23:38:17.066Z,14.64
2023-04-28T23:41:06.544Z,14.70
2023-04-28T23:43:53.149Z,14.51
2023-04-28T23:46:39.818Z,14.63
2023-04-28T23:49:26.604Z,14.68
2023-04-28T23:52:13.415Z,14.66
2023-04-28T23:55:01.576Z,14.74
2023-04-28T23:57:48.423Z,14.61
